• Join FlightAware (Why Join?)
  • Login
  • US Flag 
01:46AM EDT


 

Airport Tracker/Info


-or-


 

Live Flight TrackerFlight Track Log ✈ PDT4439 ✈ 03-Jul-2012 ✈ KSYR - KLGA

Flight Track Log - Related Links

Times and Time Zones

All times are in EDT time to prevent confusion due to time zone crossing. See the PDT4439 flight status page for this flight to view local times or setup timezone preferences in your user account.

Time Position Orientation Groundspeed Altitude Reporting Facility
EDT Latitude Longitude Course Direction KTS MPH feet Rate Location/Type
05:52PM 43.0593 -76.0429 304° West  Level FlightAware Approximate
05:52PM 43.1072 -76.1406 143° Southeast 124 143 1,500  Level Boston Center
05:56PM 42.9761 -76.0047 129° Southeast 176 203 7,800 1,320 Climbing Boston Center
05:57PM 42.9425 -75.9489 133° Southeast 181 208 9,100 1,320 Climbing Boston Center
05:58PM 42.9086 -75.8989 136° Southeast 181 208 10,500 1,260 Climbing Boston Center
05:59PM 42.8683 -75.8456 131° Southeast 188 216 11,700 1,200 Climbing Boston Center
06:00PM 42.8344 -75.7928 134° Southeast 193 222 12,900 1,020 Climbing Boston Center
06:01PM 42.7944 -75.7367 130° Southeast 198 228 13,800 840 Climbing Boston Center
06:02PM 42.7567 -75.6753 132° Southeast 198 228 14,600 540 Climbing Boston Center
06:03PM 42.7128 -75.6081 135° Southeast 210 242 14,900 180 Climbing Boston Center
06:04PM 42.6625 -75.5406 132° Southeast 236 272 15,000  Climbing Boston Center
06:05PM 42.6122 -75.4644 123° Southeast 251 289 15,000  Level Boston Center
06:06PM 42.5708 -75.3778 119° Southeast 263 303 15,000 -60 Level Boston Center
06:07PM 42.5336 -75.2861 120° Southeast 274 315 14,900 -60 Descending Boston Center
06:08PM 42.4942 -75.1942 119° Southeast 274 315 14,900  Level Boston Center
06:09PM 42.4586 -75.1081 120° Southeast 281 323 15,000  Climbing Boston Center
06:10PM 42.4192 -75.0164 120° Southeast 276 318 15,000 -60 Level Boston Center
06:11PM 42.3814 -74.9278 118° Southeast 276 318 14,900 -60 Descending Boston Center
06:12PM 42.3458 -74.8392 121° Southeast 276 318 14,900  Level Boston Center
06:13PM 42.3081 -74.7533 121° Southeast 276 318 15,000  Climbing Boston Center
06:14PM 42.2681 -74.6650 125° Southeast 271 312 14,900  Descending Boston Center
06:15PM 42.2258 -74.5822 121° Southeast 266 306 15,000  Climbing Boston Center
06:16PM 42.1919 -74.5053 114° Southeast 266 306 14,900 -60 Descending Boston Center
06:17PM 42.1583 -74.4033 117° Southeast 261 300 14,900 -180 Level Boston Center
06:18PM 42.1244 -74.3128 119° Southeast 261 300 14,600 -480 Descending Boston Center
06:19PM 42.0864 -74.2222 130° Southeast 276 318 14,000 -660 Descending Boston Center
06:20PM 42.0333 -74.1367 149° Southeast 289 333 13,300 -900 Descending Boston Center
06:21PM 41.9633 -74.0792 148° Southeast 294 338 12,300 -1,080 Descending Boston Center
06:22PM 41.8956 -74.0214 148° Southeast 294 338 11,200 -1,020 Descending Boston Center
06:23PM 41.8317 -73.9669 148° Southeast 294 338 10,300 -1,020 Descending Boston Center
06:24PM 41.7553 -73.9039 150° Southeast 294 338 9,200 -1,020 Descending Boston Center
06:25PM 41.6933 -73.8553 147° Southeast 294 338 8,300 -660 Descending Boston Center
06:26PM 41.6233 -73.7953 152° Southeast 282 325 7,900 -180 Descending Boston Center
06:27PM 41.5833 -73.7667 151° Southeast 250 288 8,000  Climbing New York TRACON
06:28PM 41.5167 -73.7167 143° Southeast 246 283 8,000  Level New York TRACON
06:29PM 41.4667 -73.6667 156° South 245 282 8,000  Level New York TRACON
06:30PM 41.3833 -73.6167 166° South 243 280 8,000  Level New York TRACON
06:31PM 41.3333 -73.6000 169° South 222 255 8,000  Level New York TRACON
06:32PM 41.2667 -73.5833 143° Southeast 231 266 8,000 -360 Level New York TRACON
06:33PM 41.2167 -73.5333 201° Southwest 256 295 7,300 -900 Descending New York TRACON
06:34PM 41.1500 -73.5667 209° Southwest 254 292 6,300 -1,020 Descending New York TRACON
06:35PM 41.0833 -73.6167 217° Southwest 249 287 5,300 -1,020 Descending New York TRACON
06:36PM 41.0333 -73.6667 207° Southwest 252 290 4,300 -720 Descending New York TRACON
06:37PM 40.9833 -73.7000 207° Southwest 209 241 4,000 -480 Descending New York TRACON
06:38PM 40.9333 -73.7333 229° Southwest 190 219 3,500 -660 Descending New York TRACON
06:39PM 40.9000 -73.7833 229° Southwest 170 196 2,700 -780 Descending New York TRACON